sensor_id;sensor_type;location;lat;lon;timestamp;temperature;humidity
19586;DHT22;9939;49.246;9.106;2023-09-19T00:00:56;16.30;99.90
19586;DHT22;9939;49.246;9.106;2023-09-19T00:03:23;16.20;99.90
19586;DHT22;9939;49.246;9.106;2023-09-19T00:05:51;16.30;99.90
19586;DHT22;9939;49.246;9.106;2023-09-19T00:08:18;16.30;99.90
19586;DHT22;9939;49.246;9.106;2023-09-19T00:10:49;16.30;99.90
19586;DHT22;9939;49.246;9.106;2023-09-19T00:13:15;16.20;99.90
19586;DHT22;9939;49.246;9.106;2023-09-19T00:15:43;16.40;99.90
19586;DHT22;9939;49.246;9.106;2023-09-19T00:18:17;16.30;99.90
19586;DHT22;9939;49.246;9.106;2023-09-19T00:20:45;16.20;99.90
19586;DHT22;9939;49.246;9.106;2023-09-19T00:23:16;16.20;99.90
19586;DHT22;9939;49.246;9.106;2023-09-19T00:25:43;16.10;99.90
19586;DHT22;9939;49.246;9.106;2023-09-19T00:28:10;16.00;99.90
19586;DHT22;9939;49.246;9.106;2023-09-19T00:30:37;15.90;99.90
19586;DHT22;9939;49.246;9.106;2023-09-19T00:33:05;15.90;99.90
19586;DHT22;9939;49.246;9.106;2023-09-19T00:35:34;16.20;99.90
19586;DHT22;9939;49.246;9.106;2023-09-19T00:38:01;16.10;99.90
19586;DHT22;9939;49.246;9.106;2023-09-19T00:40:29;16.10;99.90
19586;DHT22;9939;49.246;9.106;2023-09-19T00:42:57;16.40;99.90
19586;DHT22;9939;49.246;9.106;2023-09-19T00:45:27;16.40;99.90
19586;DHT22;9939;49.246;9.106;2023-09-19T00:47:55;16.50;99.90
19586;DHT22;9939;49.246;9.106;2023-09-19T00:50:24;16.50;99.90
19586;DHT22;9939;49.246;9.106;2023-09-19T00:52:53;16.50;99.90
19586;DHT22;9939;49.246;9.106;2023-09-19T00:55:22;16.60;99.90
19586;DHT22;9939;49.246;9.106;2023-09-19T00:57:50;16.50;99.90
19586;DHT22;9939;49.246;9.106;2023-09-19T01:00:17;16.60;99.90
19586;DHT22;9939;49.246;9.106;2023-09-19T01:02:47;16.60;99.90
19586;DHT22;9939;49.246;9.106;2023-09-19T01:05:15;16.60;99.90
19586;DHT22;9939;49.246;9.106;2023-09-19T01:07:42;16.50;99.90
19586;DHT22;9939;49.246;9.106;2023-09-19T01:10:12;16.50;99.90
19586;DHT22;9939;49.246;9.106;2023-09-19T01:15:11;16.50;99.90
19586;DHT22;9939;49.246;9.106;2023-09-19T01:17:45;16.50;99.90
19586;DHT22;9939;49.246;9.106;2023-09-19T01:20:27;16.50;99.90
19586;DHT22;9939;49.246;9.106;2023-09-19T01:22:58;16.50;99.90
19586;DHT22;9939;49.246;9.106;2023-09-19T01:30:26;16.60;99.90
19586;DHT22;9939;49.246;9.106;2023-09-19T01:32:54;16.50;99.90
19586;DHT22;9939;49.246;9.106;2023-09-19T01:35:21;16.60;99.90
19586;DHT22;9939;49.246;9.106;2023-09-19T01:37:48;16.60;99.90
19586;DHT22;9939;49.246;9.106;2023-09-19T01:40:16;16.50;99.90
19586;DHT22;9939;49.246;9.106;2023-09-19T01:45:52;16.60;99.90
19586;DHT22;9939;49.246;9.106;2023-09-19T01:50:58;16.70;99.90
19586;DHT22;9939;49.246;9.106;2023-09-19T01:53:27;16.70;99.90
19586;DHT22;9939;49.246;9.106;2023-09-19T01:55:55;16.60;99.90
19586;DHT22;9939;49.246;9.106;2023-09-19T01:58:30;16.60;99.90
19586;DHT22;9939;49.246;9.106;2023-09-19T02:01:00;16.60;99.90
19586;DHT22;9939;49.246;9.106;2023-09-19T02:03:27;16.60;99.90
19586;DHT22;9939;49.246;9.106;2023-09-19T02:05:55;16.60;99.90
19586;DHT22;9939;49.246;9.106;2023-09-19T02:08:22;16.60;99.90
19586;DHT22;9939;49.246;9.106;2023-09-19T02:10:52;16.50;99.90
19586;DHT22;9939;49.246;9.106;2023-09-19T02:13:20;16.50;99.90
19586;DHT22;9939;49.246;9.106;2023-09-19T02:15:47;16.40;99.90
19586;DHT22;9939;49.246;9.106;2023-09-19T02:18:14;16.40;99.90
19586;DHT22;9939;49.246;9.106;2023-09-19T02:20:41;16.30;99.90
19586;DHT22;9939;49.246;9.106;2023-09-19T02:23:08;16.20;99.90
19586;DHT22;9939;49.246;9.106;2023-09-19T02:25:36;16.30;99.90
19586;DHT22;9939;49.246;9.106;2023-09-19T02:28:05;16.40;99.90
19586;DHT22;9939;49.246;9.106;2023-09-19T02:30:32;16.40;99.90
19586;DHT22;9939;49.246;9.106;2023-09-19T02:33:00;16.40;99.90
19586;DHT22;9939;49.246;9.106;2023-09-19T02:35:30;16.40;99.90
19586;DHT22;9939;49.246;9.106;2023-09-19T02:38:02;16.60;99.90
19586;DHT22;9939;49.246;9.106;2023-09-19T02:40:33;16.60;99.90
19586;DHT22;9939;49.246;9.106;2023-09-19T02:43:03;16.60;99.90
19586;DHT22;9939;49.246;9.106;2023-09-19T02:45:30;16.60;99.90
19586;DHT22;9939;49.246;9.106;2023-09-19T02:47:58;16.60;99.90
19586;DHT22;9939;49.246;9.106;2023-09-19T02:50:25;16.80;99.90
19586;DHT22;9939;49.246;9.106;2023-09-19T02:52:52;16.80;99.90
19586;DHT22;9939;49.246;9.106;2023-09-19T02:55:19;16.80;99.90
19586;DHT22;9939;49.246;9.106;2023-09-19T02:57:52;16.80;99.90
19586;DHT22;9939;49.246;9.106;2023-09-19T03:00:21;16.90;99.90
19586;DHT22;9939;49.246;9.106;2023-09-19T03:02:49;16.90;99.90
19586;DHT22;9939;49.246;9.106;2023-09-19T03:05:16;16.90;99.90
19586;DHT22;9939;49.246;9.106;2023-09-19T03:07:43;17.00;99.90
19586;DHT22;9939;49.246;9.106;2023-09-19T03:10:13;16.90;99.90
19586;DHT22;9939;49.246;9.106;2023-09-19T03:12:42;17.00;99.90
19586;DHT22;9939;49.246;9.106;2023-09-19T03:15:09;17.00;99.90
19586;DHT22;9939;49.246;9.106;2023-09-19T03:17:36;17.00;99.90
19586;DHT22;9939;49.246;9.106;2023-09-19T03:20:04;17.10;99.90
19586;DHT22;9939;49.246;9.106;2023-09-19T03:22:31;17.00;99.90
19586;DHT22;9939;49.246;9.106;2023-09-19T03:24:59;17.00;99.90
19586;DHT22;9939;49.246;9.106;2023-09-19T03:27:27;16.70;99.90
19586;DHT22;9939;49.246;9.106;2023-09-19T03:29:54;16.50;99.90
19586;DHT22;9939;49.246;9.106;2023-09-19T03:32:21;16.50;99.90
19586;DHT22;9939;49.246;9.106;2023-09-19T03:34:49;16.40;99.90
19586;DHT22;9939;49.246;9.106;2023-09-19T03:37:16;16.50;99.90
19586;DHT22;9939;49.246;9.106;2023-09-19T03:39:44;16.40;99.90
19586;DHT22;9939;49.246;9.106;2023-09-19T03:42:11;16.60;99.90
19586;DHT22;9939;49.246;9.106;2023-09-19T03:44:37;16.50;99.90
19586;DHT22;9939;49.246;9.106;2023-09-19T03:47:05;16.60;99.90
19586;DHT22;9939;49.246;9.106;2023-09-19T03:49:34;16.50;99.90
19586;DHT22;9939;49.246;9.106;2023-09-19T03:52:01;16.40;99.90
19586;DHT22;9939;49.246;9.106;2023-09-19T03:54:27;16.50;99.90
19586;DHT22;9939;49.246;9.106;2023-09-19T03:56:54;16.60;99.90
19586;DHT22;9939;49.246;9.106;2023-09-19T03:59:21;16.50;99.90
19586;DHT22;9939;49.246;9.106;2023-09-19T04:01:48;16.50;99.90
19586;DHT22;9939;49.246;9.106;2023-09-19T04:04:16;16.60;99.90
19586;DHT22;9939;49.246;9.106;2023-09-19T04:06:45;16.60;99.90
19586;DHT22;9939;49.246;9.106;2023-09-19T04:09:12;16.60;99.90
19586;DHT22;9939;49.246;9.106;2023-09-19T04:11:40;16.60;99.90
19586;DHT22;9939;49.246;9.106;2023-09-19T04:14:07;16.50;99.90
19586;DHT22;9939;49.246;9.106;2023-09-19T04:16:34;16.40;99.90
19586;DHT22;9939;49.246;9.106;2023-09-19T04:19:01;16.50;99.90
19586;DHT22;9939;49.246;9.106;2023-09-19T04:21:29;16.50;99.90
19586;DHT22;9939;49.246;9.106;2023-09-19T04:23:56;16.60;99.90
19586;DHT22;9939;49.246;9.106;2023-09-19T04:26:23;16.50;99.90
19586;DHT22;9939;49.246;9.106;2023-09-19T04:28:50;16.60;99.90
19586;DHT22;9939;49.246;9.106;2023-09-19T04:31:18;16.50;99.90
19586;DHT22;9939;49.246;9.106;2023-09-19T04:33:46;16.60;99.90
19586;DHT22;9939;49.246;9.106;2023-09-19T04:36:13;16.60;99.90
19586;DHT22;9939;49.246;9.106;2023-09-19T04:39:00;16.60;99.90
19586;DHT22;9939;49.246;9.106;2023-09-19T04:41:28;16.60;99.90
19586;DHT22;9939;49.246;9.106;2023-09-19T04:43:55;16.60;99.90
19586;DHT22;9939;49.246;9.106;2023-09-19T04:46:22;16.70;99.90
19586;DHT22;9939;49.246;9.106;2023-09-19T04:48:49;16.60;99.90
19586;DHT22;9939;49.246;9.106;2023-09-19T04:51:16;16.70;99.90
19586;DHT22;9939;49.246;9.106;2023-09-19T04:53:45;16.60;99.90
19586;DHT22;9939;49.246;9.106;2023-09-19T04:56:12;16.80;99.90
19586;DHT22;9939;49.246;9.106;2023-09-19T04:58:40;16.80;99.90
19586;DHT22;9939;49.246;9.106;2023-09-19T05:01:06;16.70;99.90
19586;DHT22;9939;49.246;9.106;2023-09-19T05:03:38;16.60;99.90
19586;DHT22;9939;49.246;9.106;2023-09-19T05:06:05;16.50;99.90
19586;DHT22;9939;49.246;9.106;2023-09-19T05:08:32;16.40;99.90
19586;DHT22;9939;49.246;9.106;2023-09-19T05:11:01;16.30;99.90
19586;DHT22;9939;49.246;9.106;2023-09-19T05:13:28;16.40;99.90
19586;DHT22;9939;49.246;9.106;2023-09-19T05:15:55;16.20;99.90
19586;DHT22;9939;49.246;9.106;2023-09-19T05:18:22;16.20;99.90
19586;DHT22;9939;49.246;9.106;2023-09-19T05:20:49;16.20;99.90
19586;DHT22;9939;49.246;9.106;2023-09-19T05:23:16;16.20;99.90
19586;DHT22;9939;49.246;9.106;2023-09-19T05:25:43;16.30;99.90
19586;DHT22;9939;49.246;9.106;2023-09-19T05:28:10;16.30;99.90
19586;DHT22;9939;49.246;9.106;2023-09-19T05:30:38;16.40;99.90
19586;DHT22;9939;49.246;9.106;2023-09-19T05:33:06;16.60;99.90
19586;DHT22;9939;49.246;9.106;2023-09-19T05:35:35;16.50;99.90
19586;DHT22;9939;49.246;9.106;2023-09-19T05:38:06;16.60;99.90
19586;DHT22;9939;49.246;9.106;2023-09-19T05:40:35;16.70;99.90
19586;DHT22;9939;49.246;9.106;2023-09-19T05:43:02;16.80;99.90
19586;DHT22;9939;49.246;9.106;2023-09-19T05:45:32;16.90;99.90
19586;DHT22;9939;49.246;9.106;2023-09-19T05:48:06;17.00;99.90
19586;DHT22;9939;49.246;9.106;2023-09-19T05:50:34;17.00;99.90
19586;DHT22;9939;49.246;9.106;2023-09-19T05:53:01;16.90;99.90
19586;DHT22;9939;49.246;9.106;2023-09-19T05:55:28;17.00;99.90
19586;DHT22;9939;49.246;9.106;2023-09-19T05:57:55;17.00;99.90
19586;DHT22;9939;49.246;9.106;2023-09-19T06:00:23;17.00;99.90
19586;DHT22;9939;49.246;9.106;2023-09-19T06:02:53;17.00;99.90
19586;DHT22;9939;49.246;9.106;2023-09-19T06:05:21;17.10;99.90
19586;DHT22;9939;49.246;9.106;2023-09-19T06:07:48;17.20;99.90
19586;DHT22;9939;49.246;9.106;2023-09-19T06:10:16;17.20;99.90
19586;DHT22;9939;49.246;9.106;2023-09-19T06:12:44;17.10;99.90
19586;DHT22;9939;49.246;9.106;2023-09-19T06:15:15;17.10;99.90
19586;DHT22;9939;49.246;9.106;2023-09-19T06:17:42;17.00;99.90
19586;DHT22;9939;49.246;9.106;2023-09-19T06:20:10;17.00;99.90
19586;DHT22;9939;49.246;9.106;2023-09-19T06:22:44;17.10;99.90
19586;DHT22;9939;49.246;9.106;2023-09-19T06:25:11;17.20;99.90
19586;DHT22;9939;49.246;9.106;2023-09-19T06:27:39;17.40;99.90
19586;DHT22;9939;49.246;9.106;2023-09-19T06:30:09;17.40;99.90
19586;DHT22;9939;49.246;9.106;2023-09-19T06:32:36;17.50;99.90
19586;DHT22;9939;49.246;9.106;2023-09-19T06:35:03;17.60;99.90
19586;DHT22;9939;49.246;9.106;2023-09-19T06:37:30;17.70;99.90
19586;DHT22;9939;49.246;9.106;2023-09-19T06:39:57;17.70;99.90
19586;DHT22;9939;49.246;9.106;2023-09-19T06:42:23;17.80;99.90
19586;DHT22;9939;49.246;9.106;2023-09-19T06:44:52;17.80;99.90
19586;DHT22;9939;49.246;9.106;2023-09-19T06:47:19;17.80;99.90
19586;DHT22;9939;49.246;9.106;2023-09-19T06:49:47;18.00;99.90
19586;DHT22;9939;49.246;9.106;2023-09-19T06:52:14;18.00;99.90
19586;DHT22;9939;49.246;9.106;2023-09-19T06:54:42;18.20;99.90
19586;DHT22;9939;49.246;9.106;2023-09-19T06:57:09;18.10;99.90
19586;DHT22;9939;49.246;9.106;2023-09-19T06:59:36;18.20;99.90
19586;DHT22;9939;49.246;9.106;2023-09-19T07:02:04;18.30;99.90
19586;DHT22;9939;49.246;9.106;2023-09-19T07:04:32;18.30;99.90
19586;DHT22;9939;49.246;9.106;2023-09-19T07:06:59;18.20;99.90
19586;DHT22;9939;49.246;9.106;2023-09-19T07:09:26;18.10;99.90
19586;DHT22;9939;49.246;9.106;2023-09-19T07:11:54;18.00;99.90
19586;DHT22;9939;49.246;9.106;2023-09-19T07:14:21;18.00;99.90
19586;DHT22;9939;49.246;9.106;2023-09-19T07:16:48;18.00;99.90
19586;DHT22;9939;49.246;9.106;2023-09-19T07:19:16;18.20;99.90
19586;DHT22;9939;49.246;9.106;2023-09-19T07:21:43;18.30;99.90
19586;DHT22;9939;49.246;9.106;2023-09-19T07:24:10;18.10;99.90
19586;DHT22;9939;49.246;9.106;2023-09-19T07:26:36;18.10;99.90
19586;DHT22;9939;49.246;9.106;2023-09-19T07:29:03;18.10;99.90
19586;DHT22;9939;49.246;9.106;2023-09-19T07:31:31;18.10;99.90
19586;DHT22;9939;49.246;9.106;2023-09-19T07:33:58;18.00;99.90
19586;DHT22;9939;49.246;9.106;2023-09-19T07:36:25;18.10;99.90
19586;DHT22;9939;49.246;9.106;2023-09-19T07:38:51;18.20;99.90
19586;DHT22;9939;49.246;9.106;2023-09-19T07:41:19;18.40;99.90
19586;DHT22;9939;49.246;9.106;2023-09-19T07:43:46;18.30;99.90
19586;DHT22;9939;49.246;9.106;2023-09-19T07:46:13;18.30;99.90
19586;DHT22;9939;49.246;9.106;2023-09-19T07:48:39;18.20;99.90
19586;DHT22;9939;49.246;9.106;2023-09-19T07:51:07;18.40;99.90
19586;DHT22;9939;49.246;9.106;2023-09-19T07:53:35;18.90;99.90
19586;DHT22;9939;49.246;9.106;2023-09-19T07:56:06;19.60;99.90
19586;DHT22;9939;49.246;9.106;2023-09-19T07:58:33;19.80;99.90
19586;DHT22;9939;49.246;9.106;2023-09-19T08:01:04;19.80;99.90
19586;DHT22;9939;49.246;9.106;2023-09-19T08:03:32;19.90;99.90
19586;DHT22;9939;49.246;9.106;2023-09-19T08:06:00;20.30;99.90
19586;DHT22;9939;49.246;9.106;2023-09-19T08:08:27;20.20;99.90
19586;DHT22;9939;49.246;9.106;2023-09-19T08:10:54;20.50;99.90
19586;DHT22;9939;49.246;9.106;2023-09-19T08:13:23;21.40;99.90
19586;DHT22;9939;49.246;9.106;2023-09-19T08:15:51;21.00;99.90
19586;DHT22;9939;49.246;9.106;2023-09-19T08:18:19;20.40;99.90
19586;DHT22;9939;49.246;9.106;2023-09-19T08:20:52;19.70;99.90
19586;DHT22;9939;49.246;9.106;2023-09-19T08:23:19;20.60;99.90
19586;DHT22;9939;49.246;9.106;2023-09-19T08:25:47;21.10;99.90
19586;DHT22;9939;49.246;9.106;2023-09-19T08:28:14;21.70;99.90
19586;DHT22;9939;49.246;9.106;2023-09-19T08:30:45;21.80;99.90
19586;DHT22;9939;49.246;9.106;2023-09-19T08:33:12;21.70;99.90
19586;DHT22;9939;49.246;9.106;2023-09-19T08:35:42;22.40;99.90
19586;DHT22;9939;49.246;9.106;2023-09-19T08:38:09;21.90;99.90
19586;DHT22;9939;49.246;9.106;2023-09-19T08:40:38;21.80;99.90
19586;DHT22;9939;49.246;9.106;2023-09-19T08:43:07;21.50;99.90
19586;DHT22;9939;49.246;9.106;2023-09-19T08:45:34;21.10;99.90
19586;DHT22;9939;49.246;9.106;2023-09-19T08:50:37;22.60;99.90
19586;DHT22;9939;49.246;9.106;2023-09-19T08:53:09;22.40;99.90
19586;DHT22;9939;49.246;9.106;2023-09-19T08:55:37;21.60;99.90
19586;DHT22;9939;49.246;9.106;2023-09-19T08:58:10;21.20;99.90
19586;DHT22;9939;49.246;9.106;2023-09-19T09:00:37;21.10;99.90
19586;DHT22;9939;49.246;9.106;2023-09-19T09:03:09;21.10;99.90
19586;DHT22;9939;49.246;9.106;2023-09-19T09:05:37;21.20;99.90
19586;DHT22;9939;49.246;9.106;2023-09-19T09:08:07;21.90;99.90
19586;DHT22;9939;49.246;9.106;2023-09-19T09:10:34;22.50;99.90
19586;DHT22;9939;49.246;9.106;2023-09-19T09:13:01;22.90;99.90
19586;DHT22;9939;49.246;9.106;2023-09-19T09:15:29;22.60;99.90
19586;DHT22;9939;49.246;9.106;2023-09-19T09:17:57;22.40;99.90
19586;DHT22;9939;49.246;9.106;2023-09-19T09:20:25;22.30;99.90
19586;DHT22;9939;49.246;9.106;2023-09-19T09:22:52;21.70;99.90
19586;DHT22;9939;49.246;9.106;2023-09-19T09:25:20;22.00;99.90
19586;DHT22;9939;49.246;9.106;2023-09-19T09:28:00;21.80;99.90
19586;DHT22;9939;49.246;9.106;2023-09-19T09:30:34;21.00;99.90
19586;DHT22;9939;49.246;9.106;2023-09-19T09:33:11;20.60;99.90
19586;DHT22;9939;49.246;9.106;2023-09-19T09:35:57;20.50;99.90
19586;DHT22;9939;49.246;9.106;2023-09-19T09:38:26;20.90;99.90
19586;DHT22;9939;49.246;9.106;2023-09-19T09:40:55;20.70;99.90
19586;DHT22;9939;49.246;9.106;2023-09-19T09:43:37;21.00;99.90
19586;DHT22;9939;49.246;9.106;2023-09-19T09:46:16;21.40;99.90
19586;DHT22;9939;49.246;9.106;2023-09-19T09:49:01;21.60;99.90
19586;DHT22;9939;49.246;9.106;2023-09-19T09:51:43;22.20;99.90
19586;DHT22;9939;49.246;9.106;2023-09-19T09:54:14;22.50;99.90
19586;DHT22;9939;49.246;9.106;2023-09-19T09:56:55;23.20;99.90
19586;DHT22;9939;49.246;9.106;2023-09-19T09:59:48;24.30;99.90
19586;DHT22;9939;49.246;9.106;2023-09-19T10:02:14;24.50;99.90
19586;DHT22;9939;49.246;9.106;2023-09-19T10:04:41;24.50;99.90
19586;DHT22;9939;49.246;9.106;2023-09-19T10:07:25;24.80;99.90
19586;DHT22;9939;49.246;9.106;2023-09-19T10:09:54;25.30;99.90
19586;DHT22;9939;49.246;9.106;2023-09-19T10:12:31;25.60;99.90
19586;DHT22;9939;49.246;9.106;2023-09-19T10:14:58;27.00;99.90
19586;DHT22;9939;49.246;9.106;2023-09-19T10:17:27;26.60;99.90
19586;DHT22;9939;49.246;9.106;2023-09-19T10:19:55;25.30;99.90
19586;DHT22;9939;49.246;9.106;2023-09-19T10:22:26;24.20;99.90
19586;DHT22;9939;49.246;9.106;2023-09-19T10:24:53;22.70;99.90
19586;DHT22;9939;49.246;9.106;2023-09-19T10:27:29;22.30;99.90
19586;DHT22;9939;49.246;9.106;2023-09-19T10:29:56;21.80;99.90
19586;DHT22;9939;49.246;9.106;2023-09-19T10:32:23;22.70;99.90
19586;DHT22;9939;49.246;9.106;2023-09-19T10:34:52;23.00;99.90
19586;DHT22;9939;49.246;9.106;2023-09-19T10:37:22;23.10;99.90
19586;DHT22;9939;49.246;9.106;2023-09-19T10:39:53;23.90;99.90
19586;DHT22;9939;49.246;9.106;2023-09-19T10:42:22;25.30;99.90
19586;DHT22;9939;49.246;9.106;2023-09-19T10:44:54;25.80;99.90
19586;DHT22;9939;49.246;9.106;2023-09-19T10:47:21;26.00;99.90
19586;DHT22;9939;49.246;9.106;2023-09-19T10:49:51;25.90;99.90
19586;DHT22;9939;49.246;9.106;2023-09-19T10:52:20;26.00;99.90
19586;DHT22;9939;49.246;9.106;2023-09-19T10:54:48;26.70;99.90
19586;DHT22;9939;49.246;9.106;2023-09-19T10:57:21;27.20;99.90
19586;DHT22;9939;49.246;9.106;2023-09-19T11:00:00;26.60;99.90
19586;DHT22;9939;49.246;9.106;2023-09-19T11:02:29;26.60;99.90
19586;DHT22;9939;49.246;9.106;2023-09-19T11:04:56;26.50;99.90
19586;DHT22;9939;49.246;9.106;2023-09-19T11:08:11;26.70;99.90
19586;DHT22;9939;49.246;9.106;2023-09-19T11:10:49;26.40;99.90
19586;DHT22;9939;49.246;9.106;2023-09-19T11:13:25;26.40;99.90
19586;DHT22;9939;49.246;9.106;2023-09-19T11:26:40;24.50;99.90
19586;DHT22;9939;49.246;9.106;2023-09-19T11:29:32;25.80;99.90
19586;DHT22;9939;49.246;9.106;2023-09-19T11:32:00;25.80;99.90
19586;DHT22;9939;49.246;9.106;2023-09-19T11:39:43;25.60;99.90
19586;DHT22;9939;49.246;9.106;2023-09-19T11:47:56;24.30;99.90
19586;DHT22;9939;49.246;9.106;2023-09-19T11:50:24;25.30;99.90
19586;DHT22;9939;49.246;9.106;2023-09-19T11:52:52;25.30;99.90
19586;DHT22;9939;49.246;9.106;2023-09-19T11:55:22;26.50;99.90
19586;DHT22;9939;49.246;9.106;2023-09-19T11:57:49;26.70;99.90
19586;DHT22;9939;49.246;9.106;2023-09-19T12:00:17;26.20;99.90
19586;DHT22;9939;49.246;9.106;2023-09-19T12:02:46;26.20;99.90
19586;DHT22;9939;49.246;9.106;2023-09-19T12:05:13;26.60;99.90
19586;DHT22;9939;49.246;9.106;2023-09-19T12:07:42;27.60;99.90
19586;DHT22;9939;49.246;9.106;2023-09-19T12:10:09;27.40;99.90
19586;DHT22;9939;49.246;9.106;2023-09-19T12:12:38;27.10;99.90
19586;DHT22;9939;49.246;9.106;2023-09-19T12:15:05;25.70;99.90
19586;DHT22;9939;49.246;9.106;2023-09-19T12:17:39;26.10;99.90
19586;DHT22;9939;49.246;9.106;2023-09-19T12:20:08;25.90;99.90
19586;DHT22;9939;49.246;9.106;2023-09-19T12:22:42;27.40;99.90
19586;DHT22;9939;49.246;9.106;2023-09-19T12:25:10;27.50;99.90
19586;DHT22;9939;49.246;9.106;2023-09-19T12:27:45;27.30;99.90
19586;DHT22;9939;49.246;9.106;2023-09-19T12:30:16;27.80;99.90
19586;DHT22;9939;49.246;9.106;2023-09-19T12:32:53;27.40;99.90
19586;DHT22;9939;49.246;9.106;2023-09-19T12:35:29;27.60;99.90
19586;DHT22;9939;49.246;9.106;2023-09-19T12:38:02;30.00;99.40
19586;DHT22;9939;49.246;9.106;2023-09-19T12:40:30;30.40;98.40
19586;DHT22;9939;49.246;9.106;2023-09-19T12:43:01;31.70;96.70
19586;DHT22;9939;49.246;9.106;2023-09-19T12:45:30;32.20;95.00
19586;DHT22;9939;49.246;9.106;2023-09-19T12:51:02;30.90;96.00
19586;DHT22;9939;49.246;9.106;2023-09-19T12:53:34;31.80;95.00
19586;DHT22;9939;49.246;9.106;2023-09-19T12:56:05;32.50;95.30
19586;DHT22;9939;49.246;9.106;2023-09-19T12:58:47;32.10;93.60
19586;DHT22;9939;49.246;9.106;2023-09-19T13:01:15;31.50;94.00
19586;DHT22;9939;49.246;9.106;2023-09-19T13:03:42;31.60;93.30
19586;DHT22;9939;49.246;9.106;2023-09-19T13:06:10;31.40;94.40
19586;DHT22;9939;49.246;9.106;2023-09-19T13:08:38;32.20;92.90
19586;DHT22;9939;49.246;9.106;2023-09-19T13:11:06;31.20;93.60
19586;DHT22;9939;49.246;9.106;2023-09-19T13:13:37;30.80;93.90
19586;DHT22;9939;49.246;9.106;2023-09-19T13:16:05;32.70;93.00
19586;DHT22;9939;49.246;9.106;2023-09-19T13:18:42;32.40;91.70
19586;DHT22;9939;49.246;9.106;2023-09-19T13:21:12;32.10;92.70
19586;DHT22;9939;49.246;9.106;2023-09-19T13:23:42;31.70;92.00
19586;DHT22;9939;49.246;9.106;2023-09-19T13:26:10;31.90;91.90
19586;DHT22;9939;49.246;9.106;2023-09-19T13:28:38;32.80;92.00
19586;DHT22;9939;49.246;9.106;2023-09-19T13:31:05;34.10;90.80
19586;DHT22;9939;49.246;9.106;2023-09-19T13:33:33;33.60;90.10
19586;DHT22;9939;49.246;9.106;2023-09-19T13:36:00;32.30;90.70
19586;DHT22;9939;49.246;9.106;2023-09-19T13:38:27;31.10;91.40
19586;DHT22;9939;49.246;9.106;2023-09-19T13:40:53;32.10;91.50
19586;DHT22;9939;49.246;9.106;2023-09-19T13:43:20;31.60;91.00
19586;DHT22;9939;49.246;9.106;2023-09-19T13:45:48;31.40;91.50
19586;DHT22;9939;49.246;9.106;2023-09-19T13:48:16;31.10;91.60
19586;DHT22;9939;49.246;9.106;2023-09-19T13:50:47;30.80;91.90
19586;DHT22;9939;49.246;9.106;2023-09-19T13:53:14;31.30;91.90
19586;DHT22;9939;49.246;9.106;2023-09-19T13:55:41;29.70;92.50
19586;DHT22;9939;49.246;9.106;2023-09-19T13:58:08;27.70;94.50
19586;DHT22;9939;49.246;9.106;2023-09-19T14:00:37;27.70;95.60
19586;DHT22;9939;49.246;9.106;2023-09-19T14:03:05;28.50;94.30
19586;DHT22;9939;49.246;9.106;2023-09-19T14:05:32;28.30;95.20
19586;DHT22;9939;49.246;9.106;2023-09-19T14:07:59;30.00;93.10
19586;DHT22;9939;49.246;9.106;2023-09-19T14:10:26;31.20;92.10
19586;DHT22;9939;49.246;9.106;2023-09-19T14:12:54;30.90;91.80
19586;DHT22;9939;49.246;9.106;2023-09-19T14:15:21;30.90;92.20
19586;DHT22;9939;49.246;9.106;2023-09-19T14:17:57;30.60;91.90
19586;DHT22;9939;49.246;9.106;2023-09-19T14:20:24;30.10;92.70
19586;DHT22;9939;49.246;9.106;2023-09-19T14:22:53;30.50;92.60
19586;DHT22;9939;49.246;9.106;2023-09-19T14:25:20;30.60;92.60
19586;DHT22;9939;49.246;9.106;2023-09-19T14:27:49;32.30;91.70
19586;DHT22;9939;49.246;9.106;2023-09-19T14:30:16;31.60;92.10
19586;DHT22;9939;49.246;9.106;2023-09-19T14:32:43;32.20;91.20
19586;DHT22;9939;49.246;9.106;2023-09-19T14:35:10;32.30;90.70
19586;DHT22;9939;49.246;9.106;2023-09-19T14:37:37;32.10;91.20
19586;DHT22;9939;49.246;9.106;2023-09-19T14:40:06;29.50;92.60
19586;DHT22;9939;49.246;9.106;2023-09-19T14:42:38;28.60;94.20
19586;DHT22;9939;49.246;9.106;2023-09-19T14:45:05;29.20;93.60
19586;DHT22;9939;49.246;9.106;2023-09-19T14:47:33;29.40;93.40
19586;DHT22;9939;49.246;9.106;2023-09-19T14:50:01;27.70;95.40
19586;DHT22;9939;49.246;9.106;2023-09-19T14:52:28;26.90;96.30
19586;DHT22;9939;49.246;9.106;2023-09-19T14:54:55;25.90;97.30
19586;DHT22;9939;49.246;9.106;2023-09-19T14:57:22;25.90;98.10
19586;DHT22;9939;49.246;9.106;2023-09-19T14:59:51;27.00;97.30
19586;DHT22;9939;49.246;9.106;2023-09-19T15:02:17;27.40;96.60
19586;DHT22;9939;49.246;9.106;2023-09-19T15:04:44;27.40;96.40
19586;DHT22;9939;49.246;9.106;2023-09-19T15:07:13;27.90;96.20
19586;DHT22;9939;49.246;9.106;2023-09-19T15:09:44;27.80;96.00
19586;DHT22;9939;49.246;9.106;2023-09-19T15:12:12;27.80;95.60
19586;DHT22;9939;49.246;9.106;2023-09-19T15:14:41;28.10;95.30
19586;DHT22;9939;49.246;9.106;2023-09-19T15:17:08;27.30;95.80
19586;DHT22;9939;49.246;9.106;2023-09-19T15:19:35;27.20;96.50
19586;DHT22;9939;49.246;9.106;2023-09-19T15:22:04;27.10;96.80
19586;DHT22;9939;49.246;9.106;2023-09-19T15:24:32;27.20;96.90
19586;DHT22;9939;49.246;9.106;2023-09-19T15:26:59;27.10;96.40
19586;DHT22;9939;49.246;9.106;2023-09-19T15:29:26;26.60;97.20
19586;DHT22;9939;49.246;9.106;2023-09-19T15:31:54;27.40;96.60
19586;DHT22;9939;49.246;9.106;2023-09-19T15:34:21;27.70;96.20
19586;DHT22;9939;49.246;9.106;2023-09-19T15:36:48;28.00;96.20
19586;DHT22;9939;49.246;9.106;2023-09-19T15:39:16;28.00;95.90
19586;DHT22;9939;49.246;9.106;2023-09-19T15:41:44;27.10;96.40
19586;DHT22;9939;49.246;9.106;2023-09-19T15:44:12;26.00;98.40
19586;DHT22;9939;49.246;9.106;2023-09-19T15:46:40;25.50;99.10
19586;DHT22;9939;49.246;9.106;2023-09-19T15:49:08;24.90;99.90
19586;DHT22;9939;49.246;9.106;2023-09-19T15:51:35;24.90;99.90
19586;DHT22;9939;49.246;9.106;2023-09-19T15:54:07;24.70;99.90
19586;DHT22;9939;49.246;9.106;2023-09-19T15:56:34;24.00;99.90
19586;DHT22;9939;49.246;9.106;2023-09-19T15:59:01;23.60;99.90
19586;DHT22;9939;49.246;9.106;2023-09-19T16:01:29;23.60;99.90
19586;DHT22;9939;49.246;9.106;2023-09-19T16:03:56;23.50;99.90
19586;DHT22;9939;49.246;9.106;2023-09-19T16:06:24;23.70;99.90
19586;DHT22;9939;49.246;9.106;2023-09-19T16:08:53;23.70;99.90
19586;DHT22;9939;49.246;9.106;2023-09-19T16:11:20;23.70;99.90
19586;DHT22;9939;49.246;9.106;2023-09-19T16:13:51;23.50;99.90
19586;DHT22;9939;49.246;9.106;2023-09-19T16:16:19;23.20;99.90
19586;DHT22;9939;49.246;9.106;2023-09-19T16:18:50;23.10;99.90
19586;DHT22;9939;49.246;9.106;2023-09-19T16:21:18;23.10;99.90
19586;DHT22;9939;49.246;9.106;2023-09-19T16:23:46;22.90;99.90
19586;DHT22;9939;49.246;9.106;2023-09-19T16:26:14;22.80;99.90
19586;DHT22;9939;49.246;9.106;2023-09-19T16:28:41;22.60;99.90
19586;DHT22;9939;49.246;9.106;2023-09-19T16:31:09;22.50;99.90
19586;DHT22;9939;49.246;9.106;2023-09-19T16:33:37;22.40;99.90
19586;DHT22;9939;49.246;9.106;2023-09-19T16:36:11;22.30;99.90